Time;durP1;ratioP1;P1;durP2;ratioP2;P2;SDS_P1;SDS_P2;PMS_P1;PMS_P2;Temp;Humidity;BMP_temperature;BMP_pressure;BME280_temperature;BME280_humidity;BME280_pressure;Samples;Min_cycle;Max_cycle;Signal;HPM_P1;HPM_P2
2023/03/23 00:01:45;;;;;;;;;16.75;15.00;;;;;16.25;43.51;98303.59;6239804;27;99137;-58
2023/03/23 00:04:48;;;;;;;;;15.00;14.00;;;;;16.22;43.52;98309.59;6252844;27;100381;-58
2023/03/23 00:07:51;;;;;;;;;10.60;10.60;;;;;16.18;43.79;98316.66;6276904;27;96491;-59
2023/03/23 00:10:56;;;;;;;;;14.00;12.40;;;;;16.17;43.52;98307.69;6272500;27;96312;-58
2023/03/23 00:14:01;;;;;;;;;13.00;12.40;;;;;16.17;43.66;98310.41;6254948;27;96493;-58
2023/03/23 00:17:03;;;;;;;;;11.00;11.00;;;;;16.18;43.93;98305.75;6186700;28;96595;-58
2023/03/23 00:20:08;;;;;;;;;14.80;13.00;;;;;16.19;43.74;98308.22;6259266;27;96788;-59
2023/03/23 00:23:11;;;;;;;;;13.60;13.00;;;;;16.16;43.76;98308.78;6252685;27;96249;-59
2023/03/23 00:26:13;;;;;;;;;13.00;13.00;;;;;16.16;43.95;98300.63;6252416;27;96281;-58
2023/03/23 00:29:21;;;;;;;;;14.00;12.00;;;;;16.09;44.10;98302.78;6270986;27;96780;-58
2023/03/23 00:32:28;;;;;;;;;12.40;12.40;;;;;16.12;44.09;98306.88;6236149;27;96277;-58
2023/03/23 00:35:30;;;;;;;;;14.20;13.00;;;;;16.08;44.19;98303.84;6257717;27;96272;-58
2023/03/23 00:38:33;;;;;;;;;12.75;12.75;;;;;16.13;44.11;98306.59;6255248;27;96814;-58
2023/03/23 00:41:36;;;;;;;;;12.75;12.00;;;;;16.12;43.98;98298.72;6236683;27;96463;-58
2023/03/23 00:44:39;;;;;;;;;14.67;13.67;;;;;16.10;44.11;98295.44;6252320;27;96787;-60
2023/03/23 00:47:46;;;;;;;;;15.60;15.00;;;;;16.11;44.11;98295.19;6251556;27;96371;-59
2023/03/23 00:50:49;;;;;;;;;12.00;10.40;;;;;16.12;44.10;98296.81;6227821;27;98427;-59
2023/03/23 00:53:51;;;;;;;;;14.80;12.20;;;;;16.11;44.07;98297.06;6250596;27;96405;-58
2023/03/23 00:56:54;;;;;;;;;12.00;12.00;;;;;16.14;44.25;98278.31;6277727;27;96277;-58
2023/03/23 00:59:57;;;;;;;;;13.00;13.00;;;;;16.12;44.41;98283.22;6277412;27;96693;-59
2023/03/23 01:03:00;;;;;;;;;13.00;12.00;;;;;16.06;44.12;98273.41;6289422;27;96928;-59
2023/03/23 01:06:08;;;;;;;;;12.00;12.00;;;;;16.17;44.09;98280.50;6278805;27;96234;-59
2023/03/23 01:09:14;;;;;;;;;12.80;11.80;;;;;16.16;44.11;98281.59;6295970;27;96404;-58
2023/03/23 01:12:16;;;;;;;;;13.00;12.50;;;;;16.11;44.37;98280.75;6265099;27;96727;-58
2023/03/23 01:15:21;;;;;;;;;13.00;12.00;;;;;16.12;44.22;98276.97;6242707;27;97044;-59
2023/03/23 01:18:23;;;;;;;;;12.60;11.40;;;;;16.12;44.40;98275.06;6268985;27;96526;-58
2023/03/23 01:21:25;;;;;;;;;14.00;13.00;;;;;16.12;44.32;98274.25;6241647;27;96279;-58
2023/03/23 01:24:28;;;;;;;;;13.60;13.00;;;;;16.14;44.22;98281.03;6277193;27;96905;-58
2023/03/23 01:27:30;;;;;;;;;12.80;12.20;;;;;16.14;44.07;98278.31;6258771;27;96573;-58
2023/03/23 01:30:34;;;;;;;;;11.00;11.00;;;;;16.12;44.40;98275.06;6273034;27;97332;-59
2023/03/23 01:33:36;;;;;;;;;12.25;11.75;;;;;16.13;44.23;98276.66;6251701;27;96358;-59
2023/03/23 01:36:39;;;;;;;;;12.60;12.00;;;;;16.13;44.14;98273.94;6251998;27;99071;-58
2023/03/23 01:39:41;;;;;;;;;13.00;11.50;;;;;16.13;44.19;98273.94;6243105;27;96318;-59
2023/03/23 01:42:44;;;;;;;;;16.60;15.60;;;;;16.18;44.08;98273.94;6239292;27;96890;-59
2023/03/23 01:45:50;;;;;;;;;12.00;11.00;;;;;16.21;44.00;98270.69;6217896;27;96520;-58
2023/03/23 01:48:53;;;;;;;;;15.00;13.50;;;;;16.22;44.02;98276.97;6233984;27;98452;-59
2023/03/23 01:52:01;;;;;;;;;12.00;12.00;;;;;16.25;43.99;98276.41;6254766;27;96726;-58
2023/03/23 01:55:05;;;;;;;;;16.00;14.25;;;;;16.25;44.16;98276.41;6259937;27;96262;-58
2023/03/23 01:58:10;;;;;;;;;16.80;15.20;;;;;16.20;43.97;98282.66;6260274;27;96410;-58
2023/03/23 02:01:16;;;;;;;;;13.00;12.00;;;;;16.20;44.11;98285.38;6252596;27;96767;-59
2023/03/23 02:04:19;;;;;;;;;14.60;13.80;;;;;16.13;44.24;98279.38;6288779;27;97597;-58
2023/03/23 02:07:23;;;;;;;;;13.80;11.80;;;;;16.05;44.36;98282.66;6266187;27;96479;-58
2023/03/23 02:10:26;;;;;;;;;14.00;13.40;;;;;15.96;44.67;98289.72;6251100;27;97184;-58
2023/03/23 02:13:29;;;;;;;;;13.50;13.00;;;;;15.90;44.82;98286.19;6250912;27;96228;-58
2023/03/23 02:16:43;;;;;;;;;14.60;14.00;;;;;15.84;45.01;98287.25;6250108;27;96554;-59
2023/03/23 02:20:18;;;;;;;;;15.40;14.00;;;;;15.77;45.35;98284.00;6235123;27;96347;-59
2023/03/23 02:23:55;;;;;;;;;15.00;14.00;;;;;15.70;45.64;98288.88;6268664;27;96367;-58
2023/03/23 02:27:02;;;;;;;;;16.00;14.00;;;;;15.63;45.77;98282.91;6246200;27;96246;-59
2023/03/23 02:30:15;;;;;;;;;12.80;12.80;;;;;15.58;45.96;98291.84;6258897;27;96659;-58
2023/03/23 02:33:47;;;;;;;;;15.75;14.00;;;;;15.56;45.97;98290.47;6258801;27;96388;-59
2023/03/23 02:36:58;;;;;;;;;19.00;17.50;;;;;15.54;45.81;98289.94;6259000;27;96853;-58
2023/03/23 02:40:08;;;;;;;;;19.00;18.00;;;;;15.53;45.73;98286.41;6257690;27;96415;-59
2023/03/23 02:43:15;;;;;;;;;16.00;15.00;;;;;15.50;45.90;98286.91;6234888;27;97689;-58
2023/03/23 02:46:18;;;;;;;;;20.00;19.00;;;;;15.46;46.15;98282.25;6250965;27;96593;-59
2023/03/23 02:49:25;;;;;;;;;21.75;19.00;;;;;15.44;45.99;98295.31;6185484;27;96222;-59
2023/03/23 02:52:32;;;;;;;;;18.75;18.00;;;;;15.44;46.01;98281.75;6259326;27;96490;-58
2023/03/23 02:55:35;;;;;;;;;21.25;20.00;;;;;15.39;46.00;98277.09;6275930;27;96346;-58
2023/03/23 02:58:40;;;;;;;;;22.40;20.00;;;;;15.42;45.91;98282.00;6252694;27;96536;-58
2023/03/23 03:01:58;;;;;;;;;21.00;19.67;;;;;15.41;45.90;98274.91;6247807;27;98446;-58
2023/03/23 03:05:11;;;;;;;;;20.40;18.40;;;;;15.41;45.98;98274.91;6248988;27;96520;-58
2023/03/23 03:08:19;;;;;;;;;21.00;18.00;;;;;15.41;45.91;98265.97;6244953;27;96297;-58
2023/03/23 03:11:25;;;;;;;;;17.00;17.00;;;;;15.42;45.91;98267.59;6247718;27;96423;-58
2023/03/23 03:14:32;;;;;;;;;17.00;15.40;;;;;15.49;45.69;98265.44;6237858;27;96580;-58
2023/03/23 03:17:40;;;;;;;;;15.00;14.00;;;;;15.56;45.58;98261.41;6253267;27;96219;-58
2023/03/23 03:20:48;;;;;;;;;17.20;15.00;;;;;15.57;45.63;98254.06;6268894;27;96398;-61
2023/03/23 03:23:53;;;;;;;;;13.60;12.60;;;;;15.55;45.79;98264.38;6238062;27;96363;-58
2023/03/23 03:26:59;;;;;;;;;14.80;14.20;;;;;15.55;45.64;98254.34;6220195;27;96909;-58
2023/03/23 03:30:16;;;;;;;;;11.25;11.25;;;;;15.54;45.83;98258.13;6238342;27;96502;-58
2023/03/23 03:33:25;;;;;;;;;12.40;12.00;;;;;15.56;45.71;98253.25;6239459;27;96322;-58
2023/03/23 03:36:34;;;;;;;;;10.00;10.00;;;;;15.59;45.68;98251.88;6262075;27;96345;-58
2023/03/23 03:39:40;;;;;;;;;12.00;11.80;;;;;15.61;45.51;98238.88;6272012;27;96252;-58
2023/03/23 03:42:44;;;;;;;;;9.40;8.40;;;;;15.65;45.39;98248.09;6256136;27;96466;-59
2023/03/23 03:45:47;;;;;;;;;11.00;10.00;;;;;15.66;45.37;98244.31;6252566;27;96905;-58
2023/03/23 03:48:51;;;;;;;;;12.80;12.00;;;;;15.70;45.38;98247.28;6224536;27;96718;-59
2023/03/23 03:51:57;;;;;;;;;12.40;12.00;;;;;15.77;45.23;98245.97;6254758;27;98136;-58
2023/03/23 03:55:11;;;;;;;;;9.20;9.00;;;;;15.70;45.28;98239.13;6261025;27;97551;-59
2023/03/23 03:58:16;;;;;;;;;10.00;8.50;;;;;15.75;45.23;98244.59;6257316;27;96482;-58
2023/03/23 04:01:45;;;;;;;;;7.25;7.25;;;;;15.76;45.27;98249.75;6254966;27;96787;-58
2023/03/23 04:04:47;;;;;;;;;10.00;10.00;;;;;15.78;45.15;98242.16;6266826;27;96276;-58
2023/03/23 04:07:52;;;;;;;;;10.60;10.00;;;;;15.80;44.86;98242.69;6236780;27;96754;-58
2023/03/23 04:10:56;;;;;;;;;10.00;8.00;;;;;15.79;45.12;98237.50;6232077;27;96733;-59
2023/03/23 04:13:59;;;;;;;;;12.00;10.00;;;;;15.84;44.99;98237.50;6250158;27;96480;-58
2023/03/23 04:17:11;;;;;;;;;10.40;9.60;;;;;15.83;44.95;98247.56;6243529;27;96474;-59
2023/03/23 04:20:17;;;;;;;;;8.60;8.00;;;;;15.82;44.95;98235.09;6265965;27;97539;-58
2023/03/23 04:23:24;;;;;;;;;8.80;8.00;;;;;15.80;45.01;98239.16;6250246;27;96262;-58
2023/03/23 04:26:29;;;;;;;;;9.00;8.60;;;;;15.80;44.92;98231.00;6258808;27;96426;-58
2023/03/23 04:29:37;;;;;;;;;9.00;9.00;;;;;15.90;44.82;98237.25;6252941;27;97197;-58
2023/03/23 04:33:06;;;;;;;;;9.50;9.00;;;;;15.92;44.72;98239.72;6235113;27;99598;-58
2023/03/23 04:36:08;;;;;;;;;12.00;10.60;;;;;15.91;44.81;98236.19;6247120;27;96798;-60
2023/03/23 04:39:15;;;;;;;;;8.40;8.40;;;;;15.96;44.59;98235.34;6238748;27;98754;-58
2023/03/23 04:42:21;;;;;;;;;9.00;7.00;;;;;16.01;44.54;98235.34;6259002;27;96774;-58
2023/03/23 04:45:41;;;;;;;;;9.00;8.00;;;;;16.04;44.27;98241.06;6262458;27;96843;-58
2023/03/23 04:48:44;;;;;;;;;9.00;8.50;;;;;16.11;44.22;98235.34;6246502;27;96467;-58
2023/03/23 04:51:53;;;;;;;;;8.40;8.00;;;;;16.19;44.28;98239.41;6227580;27;97079;-58
2023/03/23 04:55:09;;;;;;;;;10.00;9.40;;;;;16.24;44.09;98242.13;6258786;27;96875;-59
2023/03/23 04:58:14;;;;;;;;;8.80;8.00;;;;;16.29;43.99;98247.56;6223614;27;96813;-59
2023/03/23 05:01:40;;;;;;;;;10.25;10.00;;;;;16.32;43.78;98239.66;6243594;27;96768;-59
2023/03/23 05:04:52;;;;;;;;;9.00;9.00;;;;;16.42;43.63;98249.72;6240825;27;96553;-58
2023/03/23 05:07:58;;;;;;;;;8.40;8.00;;;;;16.46;43.54;98257.06;6235838;27;96245;-59
2023/03/23 05:11:07;;;;;;;;;9.00;9.00;;;;;16.57;43.51;98262.47;6236215;27;97490;-60
2023/03/23 05:14:13;;;;;;;;;8.00;7.00;;;;;16.64;43.32;98260.31;6239809;27;96721;-59
2023/03/23 05:17:16;;;;;;;;;8.00;8.00;;;;;16.69;43.20;98254.88;6236609;27;96556;-59
2023/03/23 05:20:21;;;;;;;;;9.00;9.00;;;;;16.74;42.97;98252.13;6244886;27;96509;-59
2023/03/23 05:23:26;;;;;;;;;9.00;8.25;;;;;16.79;43.09;98254.84;6228381;27;96587;-59
2023/03/23 05:26:37;;;;;;;;;11.25;11.00;;;;;16.84;42.84;98257.56;6239422;27;96354;-59
2023/03/23 05:29:49;;;;;;;;;11.00;10.00;;;;;16.87;42.76;98262.44;6249469;27;96837;-60
2023/03/23 05:32:51;;;;;;;;;11.40;10.00;;;;;16.95;42.57;98259.16;6250991;27;96645;-59
2023/03/23 05:36:06;;;;;;;;;10.00;9.00;;;;;16.87;42.65;98248.81;6253572;27;96991;-59
2023/03/23 05:39:25;;;;;;;;;9.60;9.00;;;;;16.94;42.51;98252.06;6235678;27;97274;-60
2023/03/23 05:42:48;;;;;;;;;7.60;7.40;;;;;17.02;42.51;98254.22;6234229;27;98253;-59
2023/03/23 05:46:01;;;;;;;;;10.00;10.00;;;;;17.16;42.38;98254.41;6290790;27;96492;-59
2023/03/23 05:49:03;;;;;;;;;10.00;9.00;;;;;17.23;41.96;98255.75;6305903;27;96247;-60
2023/03/23 05:52:13;;;;;;;;;8.00;7.75;;;;;17.32;42.18;98251.34;6289905;27;96575;-59
2023/03/23 05:55:15;;;;;;;;;9.00;9.00;;;;;17.40;41.67;98249.13;6281449;27;96472;-59
2023/03/23 05:58:24;;;;;;;;;8.75;8.00;;;;;17.55;41.63;98247.13;6304288;27;96600;-60
2023/03/23 06:01:27;;;;;;;;;7.80;6.80;;;;;17.77;41.39;98254.91;6298878;27;96858;-59
2023/03/23 06:04:30;;;;;;;;;8.00;8.00;;;;;18.00;40.67;98267.00;6291961;27;97275;-60
2023/03/23 06:07:50;;;;;;;;;9.20;8.00;;;;;18.26;40.22;98267.63;6296190;27;96823;-60
2023/03/23 06:10:53;;;;;;;;;8.00;8.00;;;;;18.51;40.21;98267.41;6293705;27;96507;-59
2023/03/23 06:13:57;;;;;;;;;8.50;8.50;;;;;18.78;39.72;98269.59;6289585;27;96316;-59
2023/03/23 06:16:59;;;;;;;;;9.00;9.00;;;;;18.92;39.29;98265.88;6282709;27;96434;-59
2023/03/23 06:20:04;;;;;;;;;7.00;7.00;;;;;19.10;39.20;98261.59;6302174;27;96432;-59
2023/03/23 06:23:08;;;;;;;;;7.00;7.00;;;;;19.20;38.77;98256.00;6294751;27;96789;-59
2023/03/23 06:26:16;;;;;;;;;11.00;9.00;;;;;19.31;38.66;98254.72;6301914;27;96863;-59
2023/03/23 06:29:22;;;;;;;;;8.20;7.80;;;;;19.47;37.69;98244.44;6274300;27;96647;-59
2023/03/23 06:32:31;;;;;;;;;8.00;7.00;;;;;19.62;37.85;98246.97;6295007;27;96427;-59
2023/03/23 06:35:34;;;;;;;;;7.80;7.00;;;;;19.82;37.37;98252.13;6291846;27;96350;-59
2023/03/23 06:38:57;;;;;;;;;10.40;9.00;;;;;19.97;36.82;98259.28;6299154;27;96391;-59
2023/03/23 06:42:12;;;;;;;;;9.00;8.00;;;;;20.04;37.08;98250.69;6289599;27;96303;-62
2023/03/23 06:45:21;;;;;;;;;8.00;7.00;;;;;20.13;36.85;98240.72;6279739;27;96359;-62
2023/03/23 06:48:27;;;;;;;;;8.25;8.25;;;;;20.43;35.99;98242.13;6279122;27;96625;-62
2023/03/23 06:51:30;;;;;;;;;7.60;6.60;;;;;20.76;35.67;98254.66;6278090;27;96433;-62
2023/03/23 06:54:32;;;;;;;;;7.00;6.00;;;;;21.15;35.24;98241.28;6278279;27;96269;-62
2023/03/23 06:57:36;;;;;;;;;7.00;6.60;;;;;21.42;34.80;98243.16;6287224;27;96540;-62
2023/03/23 07:00:41;;;;;;;;;7.40;7.00;;;;;21.52;34.04;98242.13;6294938;27;96547;-63
2023/03/23 07:03:46;;;;;;;;;8.00;7.00;;;;;21.65;34.14;98251.47;6295171;27;96254;-63
2023/03/23 07:06:53;;;;;;;;;7.80;7.20;;;;;21.95;33.61;98259.00;6277919;27;96612;-63
2023/03/23 07:09:56;;;;;;;;;8.25;7.75;;;;;22.22;33.62;98263.56;6294838;27;96210;-63
2023/03/23 07:13:00;;;;;;;;;8.40;8.00;;;;;22.34;32.87;98261.06;6277995;27;96589;-63
2023/03/23 07:16:10;;;;;;;;;7.00;7.00;;;;;22.55;32.46;98259.41;6287841;27;96374;-63
2023/03/23 07:19:14;;;;;;;;;6.75;6.00;;;;;22.70;32.67;98258.19;6303970;27;96896;-63
2023/03/23 07:22:16;;;;;;;;;7.00;6.00;;;;;22.85;32.21;98255.88;6289416;27;96428;-63
2023/03/23 07:25:24;;;;;;;;;9.40;9.00;;;;;22.80;31.48;98228.53;6278350;27;96486;-63
2023/03/23 07:28:29;;;;;;;;;9.00;7.00;;;;;23.20;31.52;98253.25;6278531;27;96368;-63
2023/03/23 07:31:38;;;;;;;;;6.80;6.80;;;;;23.08;31.43;98259.34;6292226;27;96272;-63
2023/03/23 07:34:41;;;;;;;;;8.00;8.00;;;;;23.25;31.22;98264.94;6303285;27;96408;-63
2023/03/23 07:38:00;;;;;;;;;6.20;6.20;;;;;23.33;31.13;98247.63;6296425;27;96435;-63
2023/03/23 07:41:02;;;;;;;;;6.00;6.00;;;;;23.60;31.42;98257.56;6317068;27;96308;-63
2023/03/23 07:44:07;;;;;;;;;6.60;6.60;;;;;23.90;30.32;98258.56;6254638;27;98356;-63
2023/03/23 07:47:13;;;;;;;;;6.00;6.00;;;;;23.98;29.95;98251.44;6268046;27;96559;-63
2023/03/23 07:50:16;;;;;;;;;7.00;7.00;;;;;23.55;30.26;98229.41;6200348;27;96288;-63
2023/03/23 07:53:18;;;;;;;;;6.00;5.00;;;;;23.51;30.47;98259.50;6256289;27;96416;-63
2023/03/23 07:56:30;;;;;;;;;6.80;6.80;;;;;23.70;30.02;98249.00;6269299;27;96319;-63
2023/03/23 07:59:42;;;;;;;;;9.00;7.00;;;;;23.93;29.62;98251.59;6268960;27;96304;-63
2023/03/23 08:02:46;;;;;;;;;7.80;7.20;;;;;23.79;29.62;98248.22;6251117;27;98370;-63
2023/03/23 08:06:09;;;;;;;;;6.00;6.00;;;;;23.84;29.80;98248.06;6273237;27;95976;-63
2023/03/23 08:09:23;;;;;;;;;6.00;6.00;;;;;23.95;29.91;98247.38;6266480;27;97333;-63
2023/03/23 08:12:43;;;;;;;;;7.00;7.00;;;;;23.95;29.69;98250.13;6246484;27;96348;-63
2023/03/23 08:15:57;;;;;;;;;7.80;7.80;;;;;23.99;29.70;98255.81;6258135;27;96802;-63
2023/03/23 08:19:28;;;;;;;;;6.00;6.00;;;;;23.97;29.95;98258.09;6264281;27;96255;-63
2023/03/23 08:22:50;;;;;;;;;6.60;6.00;;;;;23.82;29.71;98256.63;6260156;27;96370;-63
2023/03/23 08:26:07;;;;;;;;;6.00;5.75;;;;;23.58;29.72;98267.28;6243609;27;96483;-63
2023/03/23 08:29:30;;;;;;;;;6.75;5.75;;;;;23.22;30.00;98281.22;6216758;27;96272;-63
2023/03/23 08:32:49;;;;;;;;;5.00;5.00;;;;;23.06;30.36;98260.81;6263309;27;97002;-63
2023/03/23 08:36:12;;;;;;;;;7.00;6.00;;;;;22.94;30.88;98258.66;6251682;27;96530;-63
2023/03/23 08:39:44;;;;;;;;;6.50;6.50;;;;;22.85;31.33;98271.56;6213484;27;96654;-63
2023/03/23 08:43:05;;;;;;;;;8.00;6.75;;;;;22.70;31.21;98263.69;6263807;27;96646;-63
2023/03/23 08:46:26;;;;;;;;;5.80;4.80;;;;;22.54;31.22;98262.47;6273977;27;96212;-63
2023/03/23 08:49:47;;;;;;;;;8.00;7.00;;;;;22.54;31.23;98260.53;6268884;27;98902;-63
2023/03/23 08:53:22;;;;;;;;;7.00;6.00;;;;;22.51;31.13;98258.44;6219957;27;96219;-63
2023/03/23 08:56:54;;;;;;;;;6.00;5.75;;;;;22.41;31.29;98262.25;6194510;27;96257;-63
2023/03/23 09:00:24;;;;;;;;;7.00;6.00;;;;;22.45;31.79;98260.50;6233660;27;96280;-63
2023/03/23 09:03:50;;;;;;;;;5.60;5.60;;;;;22.62;31.59;98265.28;6245009;27;96993;-63
2023/03/23 09:07:12;;;;;;;;;6.00;5.20;;;;;22.57;31.36;98264.59;6241642;27;96633;-63
2023/03/23 09:10:16;;;;;;;;;7.75;7.00;;;;;22.60;31.40;98250.22;6257642;27;97070;-63
2023/03/23 09:13:18;;;;;;;;;7.00;6.00;;;;;22.74;30.77;98253.72;6266528;27;96802;-63
2023/03/23 09:16:20;;;;;;;;;7.00;7.00;;;;;22.89;31.04;98253.31;6258060;27;96410;-63
2023/03/23 09:19:23;;;;;;;;;5.20;5.00;;;;;22.99;30.92;98261.28;6257072;27;96366;-63
2023/03/23 09:22:25;;;;;;;;;6.75;6.75;;;;;23.31;30.27;98258.13;6272523;27;96922;-63
2023/03/23 09:25:29;;;;;;;;;9.40;9.00;;;;;23.92;30.38;98261.81;6282891;27;96514;-63
2023/03/23 09:28:32;;;;;;;;;9.60;8.00;;;;;24.08;29.62;98265.72;6283265;27;96565;-63
2023/03/23 09:31:36;;;;;;;;;6.80;6.80;;;;;24.30;29.27;98266.66;6275253;27;96287;-63
2023/03/23 09:34:39;;;;;;;;;7.60;6.40;;;;;24.43;28.84;98268.44;6257822;27;96371;-62
2023/03/23 09:37:43;;;;;;;;;7.00;6.50;;;;;24.48;29.18;98266.31;6257917;27;96358;-63
2023/03/23 09:40:50;;;;;;;;;6.60;5.60;;;;;24.40;28.61;98258.06;6256821;27;96215;-62
2023/03/23 09:44:04;;;;;;;;;8.00;7.00;;;;;24.41;28.07;98256.94;6241039;27;96691;-63
2023/03/23 09:47:17;;;;;;;;;4.25;4.25;;;;;24.52;28.47;98258.22;6257099;27;96464;-63
2023/03/23 09:50:22;;;;;;;;;5.00;5.00;;;;;24.60;27.49;98257.38;6258174;27;96715;-63
2023/03/23 09:53:34;;;;;;;;;5.60;5.00;;;;;24.81;27.24;98243.69;6262087;27;98542;-63
2023/03/23 09:56:38;;;;;;;;;4.00;4.00;;;;;25.12;27.06;98244.22;6266161;27;96366;-63
2023/03/23 09:59:47;;;;;;;;;6.00;4.00;;;;;25.42;26.12;98236.75;6213423;28;96541;-63
2023/03/23 10:02:56;;;;;;;;;6.00;6.00;;;;;26.02;25.39;98230.00;6249121;27;96285;-64
2023/03/23 10:05:59;;;;;;;;;4.00;4.00;;;;;26.54;24.16;98235.84;6256762;27;96242;-63
2023/03/23 10:09:05;;;;;;;;;4.20;4.00;;;;;26.93;23.44;98215.88;6238327;27;99174;-63
2023/03/23 10:12:17;;;;;;;;;6.40;6.40;;;;;27.31;23.09;98217.50;6265560;27;96277;-63
2023/03/23 10:15:22;;;;;;;;;5.60;4.60;;;;;27.36;22.76;98231.91;6247245;27;96705;-63
2023/03/23 10:18:39;;;;;;;;;5.40;4.40;;;;;27.89;22.31;98235.53;6255718;27;98794;-63
2023/03/23 10:21:46;;;;;;;;;3.00;3.00;;;;;28.47;21.75;98220.16;6244672;27;99341;-63
2023/03/23 10:24:53;;;;;;;;;4.67;4.00;;;;;28.89;20.81;98228.00;6247121;27;96819;-64
2023/03/23 10:28:05;;;;;;;;;4.00;4.00;;;;;29.11;20.11;98228.19;6265514;27;96830;-63
2023/03/23 10:31:12;;;;;;;;;3.00;3.00;;;;;29.47;20.00;98227.09;6281655;27;96520;-63
2023/03/23 10:34:20;;;;;;;;;6.00;6.00;;;;;29.82;19.90;98198.47;6264289;27;96805;-63
2023/03/23 10:37:25;;;;;;;;;5.00;4.60;;;;;30.11;19.73;98211.81;6213144;28;96180;-63
2023/03/23 10:40:30;;;;;;;;;6.00;5.00;;;;;30.01;19.39;98202.09;6265700;27;96341;-64
2023/03/23 10:43:35;;;;;;;;;5.50;4.50;;;;;30.31;19.04;98193.94;6261156;27;96189;-63
2023/03/23 10:46:48;;;;;;;;;4.20;4.20;;;;;30.64;19.35;98190.63;6257993;27;96840;-63
2023/03/23 10:49:53;;;;;;;;;4.00;3.20;;;;;31.06;18.13;98203.69;6259815;27;96257;-64
2023/03/23 10:52:59;;;;;;;;;5.00;5.00;;;;;30.83;18.04;98190.56;6256550;27;97842;-63
2023/03/23 10:56:02;;;;;;;;;6.00;5.00;;;;;30.20;18.83;98175.47;6289013;27;96216;-62
2023/03/23 10:59:20;;;;;;;;;6.40;5.40;;;;;29.89;18.83;98193.09;6286674;27;96853;-62
2023/03/23 11:02:25;;;;;;;;;5.80;4.00;;;;;29.62;18.63;98186.53;6262399;27;96341;-63
2023/03/23 11:05:35;;;;;;;;;6.00;5.00;;;;;29.75;18.83;98178.91;6270004;27;96282;-63
2023/03/23 11:08:52;;;;;;;;;3.00;3.00;;;;;30.24;17.98;98179.13;6305530;27;98738;-63
2023/03/23 11:11:56;;;;;;;;;3.00;3.00;;;;;30.62;17.67;98179.06;6267211;27;96412;-63
2023/03/23 11:15:26;;;;;;;;;5.00;4.00;;;;;31.28;17.49;98177.75;6269855;27;96291;-63
2023/03/23 11:18:36;;;;;;;;;4.40;3.00;;;;;30.84;17.00;98183.81;6275372;27;96223;-63
2023/03/23 11:21:39;;;;;;;;;3.80;3.80;;;;;30.95;16.87;98164.50;6281845;27;96290;-62
2023/03/23 11:24:46;;;;;;;;;4.00;3.80;;;;;31.26;16.70;98171.78;6239207;27;98387;-63
2023/03/23 11:27:49;;;;;;;;;3.60;3.00;;;;;30.79;16.66;98155.50;6261763;27;97052;-62
2023/03/23 11:30:55;;;;;;;;;3.40;3.40;;;;;30.31;17.73;98177.25;6270991;27;96290;-63
2023/03/23 11:34:01;;;;;;;;;5.00;4.00;;;;;30.30;17.42;98172.09;6274618;27;96406;-63
2023/03/23 11:37:08;;;;;;;;;4.00;4.00;;;;;30.15;17.24;98154.34;6254272;27;96678;-63
2023/03/23 11:40:18;;;;;;;;;4.00;4.00;;;;;30.34;17.53;98154.28;6263497;27;96303;-63
2023/03/23 11:43:22;;;;;;;;;6.00;5.67;;;;;30.71;17.20;98159.31;6262488;27;96299;-63
2023/03/23 11:46:35;;;;;;;;;5.00;4.00;;;;;30.79;17.35;98155.50;6262336;27;96896;-63
2023/03/23 11:49:48;;;;;;;;;4.00;4.00;;;;;30.57;16.85;98153.53;6242589;27;97000;-63
2023/03/23 11:53:01;;;;;;;;;3.40;3.40;;;;;30.01;17.47;98146.50;6268564;27;96072;-63
2023/03/23 11:56:13;;;;;;;;;5.00;4.00;;;;;29.71;18.36;98154.59;6274598;27;97182;-62
2023/03/23 11:59:26;;;;;;;;;4.00;3.80;;;;;29.15;19.00;98151.38;6279439;27;96773;-62
2023/03/23 12:02:56;;;;;;;;;6.00;5.00;;;;;28.31;19.28;98136.16;6326265;27;96622;-62
2023/03/23 12:06:26;;;;;;;;;5.00;5.00;;;;;28.21;19.46;98151.34;6283664;27;97064;-62
2023/03/23 12:09:42;;;;;;;;;5.00;4.00;;;;;28.22;20.58;98152.16;6281944;27;96443;-63
2023/03/23 12:12:52;;;;;;;;;6.00;6.00;;;;;27.82;20.81;98158.56;6315312;27;96726;-63
2023/03/23 12:16:08;;;;;;;;;4.00;3.80;;;;;27.17;21.08;98155.00;6308426;27;96354;-64
2023/03/23 12:19:23;;;;;;;;;7.25;6.00;;;;;26.92;21.27;98141.56;6277827;27;96842;-63
2023/03/23 12:22:41;;;;;;;;;6.75;5.75;;;;;26.63;21.74;98140.59;6330284;27;96780;-62
2023/03/23 12:26:19;;;;;;;;;6.00;5.00;;;;;26.40;22.01;98149.66;6284069;27;96468;-63
2023/03/23 12:29:41;;;;;;;;;4.80;4.80;;;;;26.09;22.21;98145.44;6248554;27;96322;-64
2023/03/23 12:32:57;;;;;;;;;6.40;6.40;;;;;25.87;22.38;98143.84;6246577;27;97019;-63
2023/03/23 12:36:14;;;;;;;;;4.25;4.25;;;;;25.60;22.98;98143.63;6238991;27;97246;-63
2023/03/23 12:39:46;;;;;;;;;6.00;6.00;;;;;25.48;23.18;98151.81;6249717;27;96177;-63
2023/03/23 12:42:58;;;;;;;;;7.00;7.00;;;;;25.28;23.53;98145.94;6241893;28;96982;-62
2023/03/23 12:46:16;;;;;;;;;7.60;7.60;;;;;25.14;23.56;98144.59;6214509;27;96857;-63
2023/03/23 12:49:22;;;;;;;;;8.00;7.00;;;;;25.15;24.12;98143.47;6255034;27;96865;-63
2023/03/23 12:52:33;;;;;;;;;7.00;7.00;;;;;25.06;24.56;98143.53;6238028;27;98416;-63
2023/03/23 12:55:44;;;;;;;;;6.00;6.00;;;;;25.01;24.57;98149.22;6229485;28;96479;-63
2023/03/23 12:58:51;;;;;;;;;7.40;7.00;;;;;24.73;24.71;98140.56;6243830;27;96805;-62
2023/03/23 13:02:00;;;;;;;;;5.20;5.20;;;;;24.62;24.94;98152.31;6255201;27;96339;-63
2023/03/23 13:05:09;;;;;;;;;9.00;9.00;;;;;24.36;24.99;98161.50;6287680;27;96274;-63
2023/03/23 13:08:19;;;;;;;;;6.00;5.80;;;;;24.10;25.41;98152.44;6302697;27;96236;-63
2023/03/23 13:11:28;;;;;;;;;7.00;7.00;;;;;24.06;25.55;98129.47;6287593;27;96329;-63
2023/03/23 13:14:44;;;;;;;;;8.50;8.50;;;;;23.95;26.03;98152.97;6264661;27;96456;-63
2023/03/23 13:17:53;;;;;;;;;8.00;8.00;;;;;23.83;26.33;98150.91;6273166;27;96867;-62
2023/03/23 13:21:03;;;;;;;;;6.00;6.00;;;;;23.80;26.36;98150.75;6270598;27;96503;-63
2023/03/23 13:24:11;;;;;;;;;5.60;5.60;;;;;23.69;26.52;98150.25;6264739;27;96907;-62
2023/03/23 13:27:14;;;;;;;;;7.00;6.00;;;;;23.40;27.18;98144.56;6268720;27;96266;-63
2023/03/23 13:30:24;;;;;;;;;6.60;6.60;;;;;23.30;27.54;98149.25;6285744;27;97011;-62
2023/03/23 13:33:29;;;;;;;;;7.00;6.50;;;;;23.35;27.29;98148.31;6274428;27;96681;-63
2023/03/23 13:36:36;;;;;;;;;5.00;5.00;;;;;23.32;27.43;98135.97;6272716;27;96267;-63
2023/03/23 13:39:50;;;;;;;;;6.00;5.20;;;;;23.37;27.52;98136.94;6274966;27;96877;-62
2023/03/23 13:42:54;;;;;;;;;6.60;6.60;;;;;23.42;27.84;98125.78;6281226;27;96435;-63
2023/03/23 13:46:09;;;;;;;;;5.00;5.00;;;;;23.49;27.63;98135.22;6259049;27;96377;-60
2023/03/23 13:49:22;;;;;;;;;8.40;8.00;;;;;23.42;28.05;98139.53;6274068;27;96311;-59
2023/03/23 13:52:36;;;;;;;;;6.60;6.40;;;;;23.42;28.09;98143.09;6254616;27;97004;-59
2023/03/23 13:55:43;;;;;;;;;5.00;5.00;;;;;23.49;28.14;98150.91;6259650;27;96920;-59
2023/03/23 13:58:47;;;;;;;;;5.00;4.60;;;;;23.47;28.27;98142.97;6249375;27;96647;-59
2023/03/23 14:01:50;;;;;;;;;5.00;5.00;;;;;23.43;27.98;98121.91;6247191;27;98593;-60
2023/03/23 14:04:53;;;;;;;;;6.50;6.50;;;;;23.53;28.04;98149.94;6268362;27;96603;-60
2023/03/23 14:07:59;;;;;;;;;5.20;4.80;;;;;23.49;28.04;98145.41;6246762;27;98926;-60
2023/03/23 14:11:11;;;;;;;;;4.00;4.00;;;;;23.46;28.25;98137.78;6232690;27;96695;-59
2023/03/23 14:14:19;;;;;;;;;6.00;5.00;;;;;23.55;28.23;98138.63;6275583;27;96938;-60
2023/03/23 14:17:25;;;;;;;;;5.00;5.00;;;;;23.46;28.24;98130.34;6272581;27;96565;-59
2023/03/23 14:20:33;;;;;;;;;6.00;5.00;;;;;23.57;28.18;98120.66;6248055;27;98569;-59
2023/03/23 14:23:35;;;;;;;;;4.50;3.50;;;;;23.48;28.31;98125.34;6276182;27;96244;-59
2023/03/23 14:26:40;;;;;;;;;5.00;5.00;;;;;23.40;28.00;98128.06;6256411;27;96595;-60
2023/03/23 14:29:42;;;;;;;;;5.00;5.00;;;;;23.28;28.32;98117.69;6275168;27;96326;-59
2023/03/23 14:32:45;;;;;;;;;5.00;4.00;;;;;23.38;28.53;98125.63;6252128;27;97906;-59
2023/03/23 14:35:49;;;;;;;;;6.00;5.00;;;;;23.39;28.45;98120.94;6255549;27;98398;-59
2023/03/23 14:39:01;;;;;;;;;4.80;4.80;;;;;23.39;28.47;98119.00;6273014;27;96414;-59
2023/03/23 14:42:08;;;;;;;;;4.40;4.00;;;;;23.26;28.74;98123.53;6247268;27;98421;-60
2023/03/23 14:45:16;;;;;;;;;5.50;5.50;;;;;23.38;28.76;98127.56;6266168;27;96346;-60